Private Wetterstation Sandau
Wetterdaten: Januar 2013
Datum Temp. A. Feuchte A. Luftdruck Regen Wind Richtung Taupunkt Windchill
01.01.2013 6,3 C 83 % 1005,0 hPa 2,6 l/m 7,1 km/h (2 Bft) W-SW 3,7 C 5,1 C
02.01.2013 5,4 C 86 % 1020,5 hPa 1,0 l/m 12,1 km/h (2 Bft) W-SW 3,2 C 3,0 C
03.01.2013 8,1 C 89 % 1024,0 hPa 3,1 l/m 13,0 km/h (3 Bft) W 6,4 C 5,9 C
04.01.2013 8,4 C 93 % 1025,5 hPa 11,4 l/m 14,5 km/h (3 Bft) W-NW 7,3 C 6,2 C
05.01.2013 7,5 C 93 % 1028,4 hPa 1,0 l/m 5,3 km/h (1 Bft) NW 6,3 C 6,8 C
06.01.2013 7,1 C 94 % 1024,2 hPa 2,6 l/m 2,7 km/h (1 Bft) NW 6,1 C 7,1 C
07.01.2013 5,8 C 92 % 1027,1 hPa 0,0 l/m 1,8 km/h (1 Bft) W 4,6 C 5,6 C
08.01.2013 6,9 C 94 % 1022,2 hPa 5,7 l/m 3,4 km/h (1 Bft) W 6,0 C 6,5 C
09.01.2013 6,7 C 92 % 1014,5 hPa 5,2 l/m 8,1 km/h (2 Bft) W-SW 5,5 C 5,4 C
10.01.2013 2,0 C 84 % 1008,3 hPa 2,6 l/m 14,9 km/h (3 Bft) NO -0,4 C -1,4 C
11.01.2013 -0,4 C 87 % 1015,4 hPa 0,0 l/m 6,4 km/h (2 Bft) NO -2,3 C -2,3 C
12.01.2013 -1,2 C 90 % 1020,0 hPa 0,0 l/m 3,0 km/h (1 Bft) NW -2,7 C -2,1 C
13.01.2013 -2,3 C 85 % 1021,0 hPa 0,0 l/m 5,0 km/h (1 Bft) O-SO -4,6 C -3,0 C
14.01.2013 -4,0 C 87 % 1014,8 hPa 0,0 l/m 3,7 km/h (1 Bft) SO -5,8 C -5,6 C
15.01.2013 -4,0 C 88 % 1011,0 hPa 0,0 l/m 6,5 km/h (2 Bft) SO -5,7 C -6,8 C
16.01.2013 -3,3 C 87 % 1012,5 hPa 0,0 l/m 4,1 km/h (1 Bft) O-NO -5,2 C -3,3 C
17.01.2013 -0,2 C 86 % 1017,9 hPa 0,5 l/m 4,7 km/h (1 Bft) N-NO -2,3 C -0,9 C
18.01.2013 -2,3 C 81 % 1013,3 hPa 0,0 l/m 4,8 km/h (1 Bft) O-SO -5,1 C -3,9 C
19.01.2013 -6,7 C 80 % 1005,9 hPa 0,0 l/m 3,4 km/h (1 Bft) O-NO -9,6 C -7,6 C
20.01.2013 -4,2 C 83 % 1003,8 hPa 0,0 l/m 7,5 km/h (2 Bft) O-NO -6,6 C -7,3 C
21.01.2013 -4,3 C 84 % 1005,3 hPa 0,0 l/m 6,7 km/h (2 Bft) O-NO -6,6 C -6,5 C
22.01.2013 -5,7 C 82 % 1010,3 hPa 0,0 l/m 2,0 km/h (1 Bft) O-NO -8,2 C -6,3 C
23.01.2013 -4,4 C 84 % 1011,6 hPa 0,0 l/m 0,0 km/h (0 Bft) N-NO -6,7 C -4,4 C
24.01.2013 -4,7 C 84 % 1017,3 hPa 0,0 l/m 0,9 km/h (0 Bft) O-NO -6,9 C -4,7 C
25.01.2013 -6,7 C 84 % 1022,1 hPa 0,0 l/m 0,0 km/h (0 Bft) SO -8,9 C -6,7 C
26.01.2013 -6,5 C 84 % 1013,0 hPa 0,0 l/m 7,6 km/h (2 Bft) SO -8,7 C -9,0 C
27.01.2013 0,4 C 90 % 1004,1 hPa 0,0 l/m 4,2 km/h (1 Bft) S-SW -1,1 C 0,4 C
28.01.2013 2,5 C 88 % 1011,8 hPa 1,0 l/m 5,4 km/h (1 Bft) W-SW 0,7 C 1,6 C
29.01.2013 4,9 C 92 % 1005,9 hPa 3,1 l/m 13,2 km/h (3 Bft) S-SW 3,7 C 2,0 C
30.01.2013 7,4 C 89 % 1001,9 hPa 6,2 l/m 15,1 km/h (3 Bft) W-SW 5,7 C 5,0 C
31.01.2013 6,4 C 78 % 1004,1 hPa 3,6 l/m 18,8 km/h (3 Bft) W 2,9 C 3,0 C
Min-Datum 26.01.13 21.01.13 30.01.13 14 Tage 04.01.13 - 26.01.13 26.01.13
Min-Zeit 08:21 17:51 12:31 - 10:06 - 08:21 08:41
Minimum -12,1 C 67 % 998,3 hPa - 0,0 km/h (0 Bft) - -13,9 C -18,4 C
Max-Datum 30.01.13 30.01.13 05.01.13 04.01.13 31.01.13 - 30.01.13 30.01.13
Max-Zeit 11:31 03:51 17:46 12:01 15:56 - 12:21 11:31
Maximum 12,1 C 96 % 1029,6 hPa 11,4 l/m 47,2 km/h
W (6 Bft)
- 9,7 C 12,1 C
Durchschnitt 0,8 C 87 % 1014,3 hPa #49,7 l/m 6,6 km/h (2 Bft) W -1,1 C -0,6 C

Durchschnitt Minimum Temp.-1,4 C
Durchschnitt Maximum Temp.2,7 C
(c) by David Heller